createdAt,value
2022-11-29T00:01:01.458Z,22.90
2022-11-29T00:03:28.938Z,21.80
2022-11-29T00:05:56.488Z,22.60
2022-11-29T00:08:24.453Z,20.80
2022-11-29T00:10:51.435Z,21.20
2022-11-29T00:13:18.231Z,24.90
2022-11-29T00:15:44.913Z,26.60
2022-11-29T00:18:11.603Z,26.30
2022-11-29T00:20:39.469Z,25.20
2022-11-29T00:23:06.167Z,20.20
2022-11-29T00:25:32.944Z,19.70
2022-11-29T00:27:59.870Z,19.00
2022-11-29T00:30:26.618Z,20.10
2022-11-29T00:32:53.381Z,19.70
2022-11-29T00:35:20.066Z,24.30
2022-11-29T00:37:46.732Z,22.10
2022-11-29T00:40:13.413Z,24.50
2022-11-29T00:42:40.099Z,22.90
2022-11-29T00:45:07.307Z,23.60
2022-11-29T00:47:33.983Z,21.10
2022-11-29T00:50:00.666Z,22.30
2022-11-29T00:52:27.358Z,22.60
2022-11-29T00:54:54.051Z,23.20
2022-11-29T00:57:21.396Z,24.70
2022-11-29T00:59:48.075Z,24.50
2022-11-29T01:02:14.840Z,25.30
2022-11-29T01:04:41.815Z,24.30
2022-11-29T01:07:08.686Z,25.80
2022-11-29T01:09:35.371Z,30.60
2022-11-29T01:12:02.154Z,30.10
2022-11-29T01:14:28.813Z,29.50
2022-11-29T01:16:55.527Z,28.60
2022-11-29T01:19:22.354Z,29.50
2022-11-29T01:21:49.154Z,30.30
2022-11-29T01:24:15.803Z,30.70
2022-11-29T01:29:26.589Z,33.00
2022-11-29T01:31:53.256Z,34.00
2022-11-29T01:34:20.087Z,33.70
2022-11-29T01:36:46.834Z,39.80
2022-11-29T01:39:13.527Z,40.30
2022-11-29T01:41:40.216Z,38.60
2022-11-29T01:44:26.948Z,39.90
2022-11-29T01:46:54.610Z,42.20
2022-11-29T01:49:39.732Z,43.10
2022-11-29T01:52:14.003Z,39.90
2022-11-29T01:54:45.680Z,34.40
2022-11-29T01:57:13.090Z,44.30
2022-11-29T01:59:46.581Z,39.10
2022-11-29T02:02:17.526Z,37.90
2022-11-29T02:04:46.308Z,35.10
2022-11-29T02:07:13.253Z,36.30
2022-11-29T02:09:40.732Z,35.70
2022-11-29T02:12:38.491Z,39.60
2022-11-29T02:15:13.602Z,40.30
2022-11-29T02:17:58.783Z,31.80
2022-11-29T02:20:48.434Z,30.30
2022-11-29T02:23:31.909Z,29.90
2022-11-29T02:26:21.311Z,33.10
2022-11-29T02:29:20.961Z,30.40
2022-11-29T02:32:02.762Z,29.00
2022-11-29T02:34:52.200Z,28.30
2022-11-29T02:37:27.360Z,28.00
2022-11-29T02:40:04.860Z,29.40
2022-11-29T02:42:57.192Z,31.00
2022-11-29T02:45:54.760Z,28.30
2022-11-29T02:48:44.417Z,28.50
2022-11-29T02:51:30.928Z,26.10
2022-11-29T02:54:04.623Z,27.30
2022-11-29T02:56:36.924Z,25.30
2022-11-29T02:59:16.705Z,26.50
2022-11-29T03:02:08.501Z,26.80
2022-11-29T03:04:43.924Z,28.00
2022-11-29T03:07:14.377Z,27.20
2022-11-29T03:09:48.753Z,27.00
2022-11-29T03:12:38.403Z,28.80
2022-11-29T03:15:19.822Z,27.60
2022-11-29T03:18:01.192Z,28.10
2022-11-29T03:20:50.370Z,27.50
2022-11-29T03:23:27.110Z,25.80
2022-11-29T03:26:10.930Z,31.80
2022-11-29T03:28:43.417Z,30.50
2022-11-29T03:31:18.064Z,30.70
2022-11-29T03:34:01.565Z,31.00
2022-11-29T03:36:41.230Z,29.90
2022-11-29T03:39:17.383Z,29.10
2022-11-29T03:41:52.377Z,29.30
2022-11-29T03:44:25.543Z,31.20
2022-11-29T03:47:12.687Z,33.00
2022-11-29T03:49:44.161Z,30.20
2022-11-29T03:52:41.580Z,24.60
2022-11-29T03:55:13.315Z,24.20
2022-11-29T03:57:56.832Z,26.30
2022-11-29T04:00:23.750Z,28.70
2022-11-29T04:03:21.946Z,28.50
2022-11-29T04:06:05.460Z,26.70
2022-11-29T04:09:02.613Z,24.20
2022-11-29T04:11:54.806Z,24.70
2022-11-29T04:14:44.898Z,24.50
2022-11-29T04:17:13.789Z,24.80
2022-11-29T04:20:11.594Z,25.80
2022-11-29T04:23:01.648Z,24.50
2022-11-29T04:25:44.733Z,22.20
2022-11-29T04:28:39.046Z,22.40
2022-11-29T04:31:28.918Z,22.10
2022-11-29T04:33:58.937Z,22.40
2022-11-29T04:36:30.502Z,24.30
2022-11-29T04:39:00.584Z,24.70
2022-11-29T04:41:30.646Z,23.90
2022-11-29T04:44:20.433Z,22.60
2022-11-29T04:47:09.759Z,20.50
2022-11-29T04:49:36.425Z,23.10
2022-11-29T04:52:20.612Z,22.70
2022-11-29T04:54:57.091Z,21.90
2022-11-29T04:57:35.773Z,23.30
2022-11-29T05:00:13.499Z,23.20
2022-11-29T05:02:59.842Z,24.00
2022-11-29T05:05:43.625Z,22.90
2022-11-29T05:08:13.115Z,23.80
2022-11-29T05:10:47.463Z,35.00
2022-11-29T05:13:44.630Z,32.60
2022-11-29T05:16:42.777Z,32.60
2022-11-29T05:19:14.986Z,30.20
2022-11-29T05:21:57.129Z,34.00
2022-11-29T05:24:39.070Z,28.00
2022-11-29T05:27:27.069Z,19.10
2022-11-29T05:30:13.184Z,25.80
2022-11-29T05:32:50.712Z,27.30
2022-11-29T05:35:34.613Z,29.80
2022-11-29T05:38:18.018Z,30.60
2022-11-29T05:40:44.829Z,31.60
2022-11-29T05:43:35.048Z,33.80
2022-11-29T05:46:13.614Z,30.50
2022-11-29T05:48:48.485Z,33.40
2022-11-29T05:51:21.133Z,33.10
2022-11-29T05:54:03.242Z,30.30
2022-11-29T05:56:49.106Z,30.60
2022-11-29T05:59:22.319Z,30.10
2022-11-29T06:01:59.625Z,22.60
2022-11-29T06:04:39.581Z,22.10
2022-11-29T06:07:24.949Z,28.00
2022-11-29T06:09:53.048Z,33.80
2022-11-29T06:12:23.849Z,42.70
2022-11-29T06:15:21.524Z,50.90
2022-11-29T06:18:03.758Z,41.90
2022-11-29T06:20:40.435Z,39.60
2022-11-29T06:23:33.418Z,36.30
2022-11-29T06:26:24.264Z,35.10
2022-11-29T06:28:51.017Z,35.10
2022-11-29T06:31:24.618Z,37.20
2022-11-29T06:34:12.454Z,36.40
2022-11-29T06:36:47.167Z,9.90
2022-11-29T06:39:14.209Z,17.50
2022-11-29T06:41:40.951Z,28.60
2022-11-29T06:44:08.653Z,15.50
2022-11-29T06:47:05.590Z,30.70
2022-11-29T06:49:44.730Z,15.80
2022-11-29T06:52:32.541Z,28.30
2022-11-29T06:55:03.001Z,31.00
2022-11-29T06:57:44.843Z,20.50
2022-11-29T07:00:21.628Z,20.70
2022-11-29T07:02:48.371Z,24.70
2022-11-29T07:05:23.865Z,17.30
2022-11-29T07:07:54.362Z,25.40
2022-11-29T07:10:22.458Z,22.90
2022-11-29T07:12:51.441Z,19.50
2022-11-29T07:15:21.466Z,22.60
2022-11-29T07:17:55.417Z,21.10
2022-11-29T07:20:35.918Z,18.40
2022-11-29T07:23:30.841Z,18.20
2022-11-29T07:26:28.535Z,17.00
2022-11-29T07:29:24.073Z,18.40
2022-11-29T07:32:11.998Z,16.90
2022-11-29T07:35:00.581Z,17.00
2022-11-29T07:37:46.209Z,17.30
2022-11-29T07:40:22.139Z,17.70
2022-11-29T07:43:04.040Z,17.30
2022-11-29T07:45:33.442Z,18.30
2022-11-29T07:48:00.448Z,18.30
2022-11-29T07:50:28.436Z,18.10
2022-11-29T07:52:56.497Z,18.60
2022-11-29T07:55:25.996Z,13.80
2022-11-29T07:57:53.691Z,17.30
2022-11-29T08:00:21.607Z,17.10
2022-11-29T08:02:49.988Z,11.60
2022-11-29T08:05:17.252Z,18.40
2022-11-29T08:07:44.097Z,19.80
2022-11-29T08:10:15.031Z,16.80
2022-11-29T08:12:44.897Z,19.20
2022-11-29T08:15:12.103Z,16.70
2022-11-29T08:17:39.613Z,18.10
2022-11-29T08:20:09.049Z,17.50
2022-11-29T08:22:36.063Z,17.50
2022-11-29T08:25:03.780Z,16.90
2022-11-29T08:27:30.840Z,17.70
2022-11-29T08:29:57.778Z,18.00
2022-11-29T08:32:24.922Z,18.20
2022-11-29T08:34:51.985Z,16.10
2022-11-29T08:37:18.726Z,15.70
2022-11-29T08:39:45.572Z,16.90
2022-11-29T08:42:12.263Z,17.10
2022-11-29T08:44:39.052Z,17.20
2022-11-29T08:47:21.080Z,17.50
2022-11-29T08:50:03.209Z,15.70
2022-11-29T08:52:47.042Z,16.80
2022-11-29T08:55:13.847Z,18.50
2022-11-29T08:57:41.402Z,18.50
2022-11-29T09:00:09.456Z,19.20
2022-11-29T09:02:37.363Z,17.50
2022-11-29T09:05:05.766Z,19.80
2022-11-29T09:07:32.656Z,19.40
2022-11-29T09:10:01.057Z,21.40
2022-11-29T09:12:27.907Z,22.50
2022-11-29T09:14:54.658Z,27.30
2022-11-29T09:17:21.401Z,25.50
2022-11-29T09:19:48.227Z,22.40
2022-11-29T09:22:14.982Z,26.20
2022-11-29T09:24:41.733Z,28.20
2022-11-29T09:27:08.453Z,29.80
2022-11-29T09:29:35.330Z,29.30
2022-11-29T09:32:02.092Z,29.40
2022-11-29T09:34:28.914Z,27.40
2022-11-29T09:36:55.768Z,30.50
2022-11-29T09:39:23.072Z,31.60
2022-11-29T09:42:11.966Z,31.70
2022-11-29T09:44:46.355Z,31.30
2022-11-29T09:47:14.268Z,30.50
2022-11-29T09:49:57.428Z,25.20
2022-11-29T09:52:40.851Z,26.70
2022-11-29T09:55:23.422Z,24.80
2022-11-29T09:57:52.350Z,22.60
2022-11-29T10:00:20.619Z,25.60
2022-11-29T10:02:57.054Z,24.40
2022-11-29T10:05:39.111Z,24.40
2022-11-29T10:08:15.860Z,21.30
2022-11-29T10:10:48.456Z,21.00
2022-11-29T10:13:33.445Z,23.80
2022-11-29T10:16:12.490Z,21.00
2022-11-29T10:18:48.470Z,19.80
2022-11-29T10:21:24.460Z,18.10
2022-11-29T10:23:55.498Z,17.90
2022-11-29T10:26:25.854Z,18.80
2022-11-29T10:28:57.886Z,18.80
2022-11-29T10:31:29.263Z,20.50
2022-11-29T10:33:58.173Z,20.60
2022-11-29T10:36:34.287Z,19.50
2022-11-29T10:39:11.402Z,20.20
2022-11-29T10:41:41.239Z,20.00
2022-11-29T10:44:13.861Z,19.40
2022-11-29T10:46:41.275Z,20.90
2022-11-29T10:49:17.468Z,21.90
2022-11-29T10:51:46.407Z,20.90
2022-11-29T10:54:27.993Z,20.80
2022-11-29T10:56:57.481Z,20.00
2022-11-29T10:59:27.100Z,21.00
2022-11-29T11:01:54.612Z,21.90
2022-11-29T11:04:26.839Z,22.20
2022-11-29T11:06:57.169Z,21.20
2022-11-29T11:09:35.660Z,21.30
2022-11-29T11:12:19.011Z,23.20
2022-11-29T11:14:47.198Z,21.20
2022-11-29T11:17:32.721Z,21.40
2022-11-29T11:20:18.926Z,21.80
2022-11-29T11:22:57.954Z,21.90
2022-11-29T11:25:41.298Z,19.00
2022-11-29T11:28:15.514Z,19.70
2022-11-29T11:30:51.496Z,19.30
2022-11-29T11:33:19.282Z,17.60
2022-11-29T11:36:17.649Z,13.80
2022-11-29T11:39:15.214Z,15.90
2022-11-29T11:41:58.460Z,13.50
2022-11-29T11:44:52.342Z,14.10
2022-11-29T11:47:24.502Z,14.40
2022-11-29T11:49:54.610Z,16.10
2022-11-29T11:52:26.412Z,15.80
2022-11-29T11:54:59.819Z,13.90
2022-11-29T11:57:28.255Z,13.80
2022-11-29T12:00:03.422Z,15.30
2022-11-29T12:02:40.848Z,15.20
2022-11-29T12:05:18.961Z,14.70
2022-11-29T12:08:09.801Z,14.10
2022-11-29T12:10:39.842Z,14.60
2022-11-29T12:13:16.268Z,12.00
2022-11-29T12:15:47.675Z,14.00
2022-11-29T12:18:36.187Z,14.60
2022-11-29T12:21:10.434Z,14.80
2022-11-29T12:23:47.746Z,14.60
2022-11-29T12:26:48.881Z,15.00
2022-11-29T12:29:17.701Z,13.30
2022-11-29T12:31:55.895Z,13.70
2022-11-29T12:34:45.286Z,14.10
2022-11-29T12:37:20.826Z,13.50
2022-11-29T12:39:57.415Z,12.80
2022-11-29T12:42:24.216Z,13.80
2022-11-29T12:45:06.318Z,14.20
2022-11-29T12:47:57.237Z,17.60
2022-11-29T12:50:39.637Z,14.10
2022-11-29T12:53:30.440Z,12.50
2022-11-29T12:56:19.120Z,14.80
2022-11-29T12:59:02.558Z,15.20
2022-11-29T13:02:04.865Z,14.10
2022-11-29T13:04:44.189Z,14.70
2022-11-29T13:07:30.132Z,14.90
2022-11-29T13:10:17.663Z,15.80
2022-11-29T13:12:53.922Z,14.90
2022-11-29T13:15:25.029Z,16.30
2022-11-29T13:17:53.164Z,15.30
2022-11-29T13:20:37.042Z,15.20
2022-11-29T13:23:14.503Z,17.10
2022-11-29T13:25:45.247Z,17.30
2022-11-29T13:28:29.258Z,17.00
2022-11-29T13:31:01.771Z,16.40
2022-11-29T13:33:59.116Z,17.10
2022-11-29T13:36:56.789Z,14.70
2022-11-29T13:39:54.487Z,14.00
2022-11-29T13:42:28.745Z,16.80
2022-11-29T13:45:07.529Z,17.30
2022-11-29T13:47:48.575Z,15.00
2022-11-29T13:50:44.327Z,16.40
2022-11-29T13:53:18.010Z,14.20
2022-11-29T13:55:50.338Z,16.10
2022-11-29T13:58:18.611Z,15.70
2022-11-29T14:00:45.847Z,12.60
2022-11-29T14:03:30.255Z,15.80
2022-11-29T14:09:17.237Z,15.40
2022-11-29T14:11:46.005Z,16.80
2022-11-29T14:14:14.024Z,16.40
2022-11-29T14:16:44.250Z,10.20
2022-11-29T14:19:20.399Z,16.30
2022-11-29T14:22:15.852Z,11.90
2022-11-29T14:24:55.538Z,11.50
2022-11-29T14:27:22.290Z,16.20
2022-11-29T14:29:50.199Z,16.50
2022-11-29T14:32:24.882Z,16.50
2022-11-29T14:35:04.816Z,18.90
2022-11-29T14:38:02.160Z,19.60
2022-11-29T14:40:41.580Z,21.90
2022-11-29T14:43:37.601Z,34.40
2022-11-29T14:46:09.494Z,22.20
2022-11-29T14:48:36.970Z,37.70
2022-11-29T14:51:12.791Z,22.50
2022-11-29T14:53:42.023Z,20.70
2022-11-29T14:56:32.892Z,23.20
2022-11-29T14:59:30.580Z,25.40
2022-11-29T15:01:58.979Z,25.10
2022-11-29T15:04:27.306Z,26.30
2022-11-29T15:06:57.096Z,27.40
2022-11-29T15:09:24.710Z,28.40
2022-11-29T15:12:09.837Z,28.70
2022-11-29T15:14:37.760Z,25.90
2022-11-29T15:17:17.930Z,28.30
2022-11-29T15:19:51.794Z,27.80
2022-11-29T15:22:22.678Z,24.20
2022-11-29T15:24:53.860Z,26.50
2022-11-29T15:27:21.835Z,26.90
2022-11-29T15:29:48.890Z,31.90
2022-11-29T15:32:23.799Z,28.90
2022-11-29T15:34:53.562Z,27.60
2022-11-29T15:37:24.847Z,32.10
2022-11-29T15:40:11.068Z,32.50
2022-11-29T15:42:40.945Z,104.90
2022-11-29T15:45:24.283Z,44.00
2022-11-29T15:47:51.256Z,44.90
2022-11-29T15:50:29.619Z,98.50
2022-11-29T15:53:02.014Z,43.00
2022-11-29T15:55:29.589Z,36.10
2022-11-29T15:58:02.632Z,63.10
2022-11-29T16:00:33.847Z,294.30
2022-11-29T16:03:02.205Z,208.20
2022-11-29T16:05:35.800Z,51.20
2022-11-29T16:08:07.935Z,40.60
2022-11-29T16:10:39.487Z,29.40
2022-11-29T16:13:27.660Z,29.10
2022-11-29T16:16:10.942Z,25.80
2022-11-29T16:18:41.001Z,25.70
2022-11-29T16:21:21.663Z,23.90
2022-11-29T16:23:48.618Z,25.00
2022-11-29T16:26:20.675Z,27.20
2022-11-29T16:28:50.357Z,92.80
2022-11-29T16:31:19.303Z,50.80
2022-11-29T16:33:49.093Z,36.30
2022-11-29T16:36:16.591Z,29.60
2022-11-29T16:38:47.017Z,29.80
2022-11-29T16:41:21.470Z,24.30
2022-11-29T16:43:53.671Z,27.50
2022-11-29T16:46:20.426Z,24.70
2022-11-29T16:48:49.455Z,26.50
2022-11-29T16:51:23.807Z,28.10
2022-11-29T16:53:52.527Z,27.60
2022-11-29T16:56:23.521Z,27.40
2022-11-29T16:59:20.867Z,28.60
2022-11-29T17:01:40.613Z,28.70
2022-11-29T17:04:09.037Z,26.90
2022-11-29T17:06:36.864Z,31.90
2022-11-29T17:09:03.892Z,25.90
2022-11-29T17:11:30.595Z,24.30
2022-11-29T17:13:57.716Z,22.10
2022-11-29T17:16:24.891Z,20.90
2022-11-29T17:18:52.996Z,22.70
2022-11-29T17:21:25.507Z,18.30
2022-11-29T17:23:53.608Z,19.60
2022-11-29T17:26:21.631Z,22.20
2022-11-29T17:28:50.277Z,22.50
2022-11-29T17:31:19.871Z,23.00
2022-11-29T17:33:46.685Z,22.70
2022-11-29T17:36:16.690Z,22.90
2022-11-29T17:38:44.788Z,21.20
2022-11-29T17:41:14.994Z,22.80
2022-11-29T17:43:42.399Z,21.80
2022-11-29T17:46:11.492Z,22.10
2022-11-29T17:48:38.800Z,21.40
2022-11-29T17:51:17.222Z,21.40
2022-11-29T17:53:53.887Z,24.60
2022-11-29T17:56:23.853Z,23.20
2022-11-29T17:58:52.512Z,22.40
2022-11-29T18:01:22.147Z,24.60
2022-11-29T18:03:52.019Z,21.10
2022-11-29T18:06:20.953Z,24.30
2022-11-29T18:08:50.718Z,24.80
2022-11-29T18:11:20.203Z,26.60
2022-11-29T18:13:47.974Z,25.50
2022-11-29T18:16:18.133Z,26.00
2022-11-29T18:18:45.486Z,28.80
2022-11-29T18:21:13.481Z,30.70
2022-11-29T18:23:42.848Z,33.50
2022-11-29T18:26:15.997Z,33.80
2022-11-29T18:31:31.231Z,34.70
2022-11-29T18:34:14.313Z,34.20
2022-11-29T18:36:44.535Z,32.30
2022-11-29T18:39:14.850Z,32.40
2022-11-29T18:41:44.082Z,34.40
2022-11-29T18:44:13.165Z,30.30
2022-11-29T18:46:41.672Z,27.60
2022-11-29T18:49:10.325Z,25.40
2022-11-29T18:51:38.106Z,25.10
2022-11-29T18:54:06.047Z,27.40
2022-11-29T18:56:35.057Z,26.40
2022-11-29T18:59:04.998Z,24.90
2022-11-29T19:01:37.885Z,22.70
2022-11-29T19:04:04.822Z,23.40
2022-11-29T19:06:39.371Z,20.60
2022-11-29T19:09:09.829Z,22.70
2022-11-29T19:11:36.573Z,22.00
2022-11-29T19:14:08.027Z,22.00
2022-11-29T19:16:34.801Z,14.60
2022-11-29T19:19:02.007Z,19.90
2022-11-29T19:21:32.061Z,22.50
2022-11-29T19:24:01.019Z,23.30
2022-11-29T19:26:29.637Z,24.00
2022-11-29T19:28:57.252Z,23.50
2022-11-29T19:31:25.294Z,19.10
2022-11-29T19:33:52.873Z,16.90
2022-11-29T19:36:22.483Z,21.30
2022-11-29T19:38:53.399Z,21.90
2022-11-29T19:41:23.635Z,22.40
2022-11-29T19:43:50.684Z,21.90
2022-11-29T19:46:18.984Z,22.80
2022-11-29T19:48:46.278Z,22.50
2022-11-29T19:51:16.591Z,22.90
2022-11-29T19:53:45.097Z,23.10
2022-11-29T19:56:14.334Z,29.70
2022-11-29T19:58:42.782Z,27.50
2022-11-29T20:01:14.962Z,24.20
2022-11-29T20:03:42.223Z,24.00
2022-11-29T20:06:09.902Z,24.80
2022-11-29T20:08:38.529Z,24.70
2022-11-29T20:11:11.769Z,24.60
2022-11-29T20:13:40.029Z,25.00
2022-11-29T20:16:12.097Z,25.30
2022-11-29T20:18:44.605Z,27.40
2022-11-29T20:21:32.421Z,26.70
2022-11-29T20:24:02.000Z,24.70
2022-11-29T20:26:31.100Z,26.90
2022-11-29T20:28:59.168Z,26.10
2022-11-29T20:31:26.404Z,27.50
2022-11-29T20:33:55.080Z,26.90
2022-11-29T20:36:52.930Z,26.00
2022-11-29T20:39:29.257Z,25.40
2022-11-29T20:42:14.752Z,24.50
2022-11-29T20:44:52.300Z,24.40
2022-11-29T20:47:21.775Z,23.80
2022-11-29T20:49:49.095Z,21.60
2022-11-29T20:52:30.843Z,23.00
2022-11-29T20:54:57.504Z,23.00
2022-11-29T20:57:24.237Z,24.40
2022-11-29T20:59:50.955Z,25.50
2022-11-29T21:02:17.607Z,27.20
2022-11-29T21:04:44.558Z,24.30
2022-11-29T21:07:11.604Z,23.70
2022-11-29T21:09:38.243Z,21.90
2022-11-29T21:12:05.547Z,24.10
2022-11-29T21:14:32.500Z,22.30
2022-11-29T21:16:59.768Z,23.10
2022-11-29T21:19:26.986Z,21.00
2022-11-29T21:22:01.468Z,20.40
2022-11-29T21:24:54.460Z,20.30
2022-11-29T21:27:34.219Z,20.20
2022-11-29T21:30:03.712Z,21.10
2022-11-29T21:32:31.807Z,16.70
2022-11-29T21:34:59.121Z,18.60
2022-11-29T21:37:29.739Z,20.40
2022-11-29T21:39:57.668Z,18.70
2022-11-29T21:42:24.348Z,18.70
2022-11-29T21:44:51.035Z,19.10
2022-11-29T21:47:17.949Z,20.30
2022-11-29T21:49:45.045Z,19.70
2022-11-29T21:52:11.749Z,21.50
2022-11-29T21:54:39.361Z,20.20
2022-11-29T21:57:06.102Z,20.20
2022-11-29T21:59:32.763Z,20.20
2022-11-29T22:01:59.701Z,19.90
2022-11-29T22:04:26.690Z,21.60
2022-11-29T22:06:53.569Z,20.70
2022-11-29T22:09:20.457Z,17.70
2022-11-29T22:11:47.110Z,19.60
2022-11-29T22:14:18.243Z,19.20
2022-11-29T22:16:47.274Z,19.30
2022-11-29T22:19:16.938Z,19.00
2022-11-29T22:21:46.536Z,20.60
2022-11-29T22:24:15.923Z,17.10
2022-11-29T22:26:43.911Z,20.50
2022-11-29T22:29:13.966Z,19.30
2022-11-29T22:31:41.608Z,20.10
2022-11-29T22:34:09.473Z,17.90
2022-11-29T22:36:37.551Z,20.50
2022-11-29T22:39:05.594Z,19.30
2022-11-29T22:41:34.088Z,19.30
2022-11-29T22:44:00.899Z,19.20
2022-11-29T22:46:29.048Z,20.70
2022-11-29T22:48:57.660Z,17.80
2022-11-29T22:51:30.628Z,18.60
2022-11-29T22:54:00.437Z,18.10
2022-11-29T22:56:29.691Z,17.90
2022-11-29T22:58:57.995Z,18.00
2022-11-29T23:01:26.976Z,17.40
2022-11-29T23:03:56.209Z,18.30
2022-11-29T23:06:25.604Z,20.10
2022-11-29T23:08:54.802Z,18.60
2022-11-29T23:11:24.175Z,19.00
2022-11-29T23:13:51.074Z,18.80
2022-11-29T23:16:20.626Z,17.40
2022-11-29T23:18:47.693Z,17.10
2022-11-29T23:21:20.926Z,16.90
2022-11-29T23:23:52.908Z,16.60
2022-11-29T23:26:26.066Z,17.20
2022-11-29T23:28:54.153Z,17.10
2022-11-29T23:31:22.615Z,17.80
2022-11-29T23:33:49.632Z,17.30
2022-11-29T23:36:17.899Z,17.60
2022-11-29T23:38:45.217Z,18.10
2022-11-29T23:41:12.294Z,16.60
2022-11-29T23:43:40.711Z,15.80
2022-11-29T23:46:10.363Z,16.10
2022-11-29T23:48:37.296Z,17.10
2022-11-29T23:51:04.308Z,19.20
2022-11-29T23:53:31.226Z,17.00
2022-11-29T23:56:00.112Z,14.50
2022-11-29T23:58:26.905Z,15.70
